Weather History for Oxford, NC

Change the Weather History Date:

Friday, February 15, 2013

  Actual Average (KTDF) Record (KTDF)
Temperature  
Mean Temperature 45 °F -  
Max Temperature 60 °F 54 °F 75 °F (1989)
Min Temperature 30 °F 30 °F 16 °F (1979)
Degree Days  
Heating Degree Days 20    
Moisture  
Dew Point 30 °F    
Average Humidity 61    
Maximum Humidity 96    
Minimum Humidity 26    
Precipitation  
Precipitation 0.00 in - - ()
Sea Level Pressure  
Sea Level Pressure 30.00 in    
Wind  
Wind Speed 5 mph (SW)    
Max Wind Speed 12 mph    
Max Gust Speed 18 mph    
Visibility 10 miles    
Events      
Averages and records for this station are not official NWS values.
T = Trace of Precipitation, MM = Missing Value Source: NWS Daily Summary

Daily Weather History Graph

Daily Weather History Graph

Search for Another Location

Airport:

Trip Planner

Search our weather history database for the weather conditions in past years. The results will help you decide how hot, cold, wet, or windy it might be!

Date:

Astronomy

Feb. 15, 2013 Rise Set
Actual Time 7:01 AM EST 5:55 PM EST
Civil Twilight 6:35 AM EST 6:21 PM EST
Nautical Twilight 6:05 AM EST 6:51 PM EST
Astronomical Twilight 5:35 AM EST 7:21 PM EST
Moon 9:47 AM EST (2/15) 11:42 PM EST (2/15)
Length of Visible Light 11h 46m
Length of Day
10h 53m
Waxing Crescent, 30% of the Moon is Illuminated
Feb 15
Waxing Crescent
Feb 17
First Quarter
Feb 25
Full
Mar 4
Last Quarter
Mar 11
New

Hourly Weather History & Observations

Time (EST) Temp. Windchill Dew Point Humidity Pressure Visibility Wind Dir Wind Speed Gust Speed Precip Events Conditions
12:15 AM 34.2 °F 29.0 °F 30.7 °F 87% 30.05 in 10.0 mi SSW 5.8 mph - N/A   Clear
12:35 AM 34.0 °F 29.8 °F 30.7 °F 88% 30.05 in 10.0 mi SSW 4.6 mph - N/A   Clear
12:55 AM 34.2 °F 30.0 °F 30.7 °F 87% 30.06 in 10.0 mi SSW 4.6 mph - N/A   Clear
1:15 AM 34.3 °F 30.2 °F 30.9 °F 87% 30.07 in 10.0 mi SSW 4.6 mph - N/A   Clear
1:35 AM 33.8 °F 29.6 °F 30.4 °F 87% 30.06 in 10.0 mi SSW 4.6 mph - N/A   Clear
1:55 AM 32.9 °F 28.5 °F 30.4 °F 90% 30.06 in 10.0 mi SW 4.6 mph - N/A   Clear
2:15 AM 32.7 °F 28.3 °F 29.7 °F 88% 30.05 in 10.0 mi SW 4.6 mph - N/A   Clear
2:35 AM 32.4 °F 27.9 °F 30.4 °F 92% 30.04 in 10.0 mi South 4.6 mph - N/A   Clear
2:55 AM 32.0 °F 26.4 °F 30.6 °F 94% 30.04 in 10.0 mi SW 5.8 mph - N/A   Clear
3:15 AM 32.5 °F 28.1 °F 31.1 °F 94% 30.04 in 10.0 mi SW 4.6 mph - N/A   Clear
3:35 AM 31.8 °F 26.2 °F 29.8 °F 92% 30.03 in 10.0 mi SSW 5.8 mph - N/A   Clear
3:55 AM 32.0 °F 26.4 °F 30.4 °F 94% 30.03 in 10.0 mi SW 5.8 mph - N/A   Clear
4:15 AM 32.0 °F 26.4 °F 30.4 °F 94% 30.03 in 10.0 mi SW 5.8 mph - N/A   Clear
4:35 AM 32.0 °F 26.4 °F 29.8 °F 92% 30.04 in 10.0 mi SW 5.8 mph - N/A   Clear
4:55 AM 30.9 °F 25.2 °F 29.1 °F 93% 30.04 in 10.0 mi SSW 5.8 mph - N/A   Clear
5:15 AM 31.8 °F 27.3 °F 30.6 °F 95% 30.04 in 10.0 mi SW 4.6 mph - N/A   Clear
5:35 AM 31.1 °F 26.4 °F 29.5 °F 94% 30.04 in 10.0 mi SW 4.6 mph - N/A   Clear
5:55 AM 32.5 °F 28.1 °F 31.3 °F 95% 30.04 in 10.0 mi WSW 4.6 mph - N/A   Clear
6:15 AM 31.5 °F 26.8 °F 29.5 °F 92% 30.04 in 10.0 mi WSW 4.6 mph - N/A   Clear
6:35 AM 30.7 °F 26.0 °F 29.1 °F 94% 30.05 in 7.0 mi WSW 4.6 mph - N/A   Clear
6:55 AM 30.4 °F 26.9 °F 29.1 °F 95% 30.05 in 7.0 mi WSW 3.5 mph - N/A   Clear
7:15 AM 30.2 °F 26.7 °F 29.1 °F 96% 30.06 in 5.0 mi WSW 3.5 mph - N/A   Clear
7:35 AM 31.1 °F 27.7 °F 29.8 °F 95% 30.06 in 7.0 mi WSW 3.5 mph - N/A   Clear
7:55 AM 33.8 °F - 32.5 °F 95% 30.07 in 10.0 mi Calm Calm - N/A   Clear
8:15 AM 37.8 °F - 34.0 °F 86% 30.07 in 10.0 mi Calm Calm - N/A   Clear
8:35 AM 40.8 °F - 33.4 °F 75% 30.07 in 10.0 mi Calm Calm - N/A   Clear
8:55 AM 43.2 °F 41.5 °F 36.0 °F 76% 30.07 in 10.0 mi SW 3.5 mph - N/A   Clear
9:15 AM 45.3 °F 44.0 °F 34.5 °F 66% 30.07 in 10.0 mi WSW 3.5 mph - N/A   Clear
9:35 AM 48.2 °F - 34.2 °F 58% 30.07 in 10.0 mi West 4.6 mph - N/A   Clear
9:55 AM 50.7 °F - 34.9 °F 55% 30.07 in 10.0 mi West 4.6 mph - N/A   Clear
10:15 AM 52.7 °F - 33.8 °F 49% 30.07 in 10.0 mi WSW 3.5 mph - N/A   Clear
10:35 AM 54.3 °F - 32.7 °F 44% 30.07 in 10.0 mi SW 3.5 mph - N/A   Clear
10:55 AM 55.4 °F - 31.6 °F 40% 30.07 in 10.0 mi West 5.8 mph - N/A   Clear
11:15 AM 56.7 °F - 30.7 °F 37% 30.06 in 10.0 mi West 4.6 mph - N/A   Clear
11:35 AM 56.8 °F - 30.6 °F 37% 30.05 in 10.0 mi Calm Calm - N/A   Clear
11:55 AM 57.7 °F - 28.9 °F 33% 30.04 in 10.0 mi West 3.5 mph - N/A   Clear
12:15 PM 58.1 °F - 26.1 °F 29% 30.04 in 10.0 mi SSW 3.5 mph - N/A   Clear
12:55 PM 58.6 °F - 27.1 °F 30% 30.01 in 10.0 mi SSW 5.8 mph - N/A   Clear
1:15 PM 59.2 °F - 26.8 °F 29% 30.00 in 10.0 mi Calm Calm - N/A   Clear
1:35 PM 59.9 °F - 26.8 °F 28% 29.99 in 10.0 mi South 6.9 mph - N/A   Clear
1:55 PM 59.7 °F - 26.8 °F 28% 29.99 in 10.0 mi SW 9.2 mph - N/A   Scattered Clouds
2:15 PM 59.7 °F - 26.1 °F 28% 29.98 in 10.0 mi SSW 5.8 mph - N/A   Clear
2:35 PM 59.9 °F - 26.4 °F 28% 29.97 in 10.0 mi WSW 10.4 mph - N/A   Clear
2:55 PM 60.3 °F - 25.5 °F 27% 29.96 in 10.0 mi SW 6.9 mph - N/A   Clear
3:15 PM 59.9 °F - 25.0 °F 26% 29.95 in 10.0 mi WSW 9.2 mph 17.3 mph N/A   Clear
3:35 PM 60.4 °F - 25.0 °F 26% 29.95 in 10.0 mi WSW 9.2 mph - N/A   Clear
3:55 PM 59.9 °F - 24.8 °F 26% 29.94 in 10.0 mi SW 10.4 mph - N/A   Clear
4:15 PM 59.7 °F - 25.0 °F 26% 29.93 in 10.0 mi SW 3.5 mph - N/A   Clear
4:35 PM 59.4 °F - 26.6 °F 29% 29.93 in 10.0 mi SW 4.6 mph - N/A   Clear
4:55 PM 58.6 °F - 25.9 °F 29% 29.93 in 10.0 mi SSW 6.9 mph - N/A   Clear
5:15 PM 57.7 °F - 25.2 °F 29% 29.93 in 10.0 mi SW 8.1 mph - N/A   Clear
5:35 PM 55.0 °F - 27.5 °F 35% 29.92 in 10.0 mi SSW 5.8 mph - N/A   Clear
5:55 PM 54.3 °F - 26.8 °F 35% 29.92 in 10.0 mi South 3.5 mph - N/A   Clear
6:15 PM 53.6 °F - 27.1 °F 36% 29.92 in 10.0 mi South 3.5 mph - N/A   Clear
6:35 PM 52.7 °F - 28.0 °F 39% 29.92 in 10.0 mi South 3.5 mph - N/A   Clear
6:55 PM 50.7 °F - 29.8 °F 45% 29.93 in 10.0 mi South 3.5 mph - N/A   Clear
7:15 PM 48.0 °F - 30.0 °F 50% 29.93 in 10.0 mi South 3.5 mph - N/A   Clear
7:35 PM 47.5 °F - 30.2 °F 51% 29.94 in 10.0 mi South 3.5 mph - N/A   Clear
7:55 PM 48.7 °F - 29.3 °F 47% 29.94 in 10.0 mi Calm Calm - N/A   Clear
8:15 PM 46.0 °F 44.8 °F 31.5 °F 57% 29.94 in 10.0 mi South 3.5 mph - N/A   Clear
8:35 PM 44.6 °F 43.1 °F 31.8 °F 61% 29.94 in 10.0 mi South 3.5 mph - N/A   Clear
8:55 PM 44.1 °F 42.5 °F 31.3 °F 61% 29.94 in 10.0 mi SSW 3.5 mph - N/A   Clear
9:15 PM 44.8 °F 43.3 °F 31.1 °F 59% 29.94 in 10.0 mi South 3.5 mph - N/A   Clear
9:35 PM 43.9 °F 42.3 °F 30.7 °F 60% 29.94 in 10.0 mi South 3.5 mph - N/A   Clear
9:55 PM 45.7 °F - 29.7 °F 54% 29.94 in 10.0 mi Calm Calm - N/A   Scattered Clouds
10:15 PM 45.3 °F 41.6 °F 31.5 °F 58% 29.96 in 10.0 mi WNW 6.9 mph 17.3 mph N/A   Overcast
10:35 PM 48.9 °F - 31.8 °F 52% 29.97 in 10.0 mi NW 11.5 mph 16.1 mph N/A   Overcast
10:55 PM 47.8 °F - 33.8 °F 58% 29.97 in 10.0 mi NNW 11.5 mph 16.1 mph N/A   Overcast
11:15 PM 46.6 °F - 32.2 °F 57% 29.97 in 10.0 mi NW 11.5 mph 18.4 mph N/A   Mostly Cloudy
11:35 PM 45.1 °F 39.9 °F 31.5 °F 59% 29.97 in 10.0 mi NW 10.4 mph 17.3 mph N/A   Scattered Clouds
11:55 PM 44.4 °F 40.0 °F 30.0 °F 57% 29.97 in 10.0 mi NW 8.1 mph - N/A   Clear